Time;durP1;ratioP1;P1;durP2;ratioP2;P2;SDS_P1;SDS_P2;PMS_P1;PMS_P2;Temp;Humidity;BMP_temperature;BMP_pressure;BME280_temperature;BME280_humidity;BME280_pressure;Samples;Min_cycle;Max_cycle;Signal;HPM_P1;HPM_P2
2022/08/17 00:00:55;;;;;;;4.57;3.53;;;23.40;99.90;;;;;;6340229;22;20006;-80
2022/08/17 00:03:28;;;;;;;4.28;3.88;;;23.40;99.90;;;;;;6340096;22;20010;-80
2022/08/17 00:05:53;;;;;;;3.42;3.22;;;23.40;99.90;;;;;;6312417;22;20498;-80
2022/08/17 00:08:25;;;;;;;3.88;3.58;;;23.40;99.90;;;;;;6339963;22;20074;-79
2022/08/17 00:10:52;;;;;;;4.03;3.45;;;23.40;99.90;;;;;;6340190;22;20073;-80
2022/08/17 00:13:28;;;;;;;6.70;4.35;;;23.40;99.90;;;;;;6312502;22;20368;-80
2022/08/17 00:15:58;;;;;;;4.00;3.80;;;23.40;99.90;;;;;;6339935;22;20462;-80
2022/08/17 00:18:26;;;;;;;3.83;3.53;;;23.40;99.90;;;;;;6340315;22;20384;-79
2022/08/17 00:20:53;;;;;;;6.57;4.15;;;23.40;99.90;;;;;;6340238;22;20068;-80
2022/08/17 00:23:19;;;;;;;3.95;3.65;;;23.40;99.90;;;;;;6312189;22;20003;-80
2022/08/17 00:25:46;;;;;;;4.03;3.67;;;23.30;99.90;;;;;;6339911;22;20003;-80
2022/08/17 00:28:14;;;;;;;4.82;3.70;;;23.30;99.90;;;;;;6311897;22;20003;-80
2022/08/17 00:30:44;;;;;;;5.47;3.53;;;23.30;99.90;;;;;;6340051;22;20002;-79
2022/08/17 00:33:15;;;;;;;3.90;3.60;;;23.30;99.90;;;;;;6339796;22;20052;-79
2022/08/17 00:35:42;;;;;;;4.18;3.47;;;23.40;99.90;;;;;;6339691;22;19999;-80
2022/08/17 00:38:11;;;;;;;3.90;3.60;;;23.40;99.90;;;;;;6339841;22;20010;-79
2022/08/17 00:40:40;;;;;;;4.20;3.80;;;23.30;99.90;;;;;;6339965;22;19998;-80
2022/08/17 00:43:14;;;;;;;4.75;4.03;;;23.30;99.90;;;;;;6312118;22;20003;-79
2022/08/17 00:45:40;;;;;;;3.70;3.45;;;23.30;99.90;;;;;;6312221;22;20446;-80
2022/08/17 00:48:06;;;;;;;4.35;3.60;;;23.30;99.90;;;;;;6339676;22;20083;-79
2022/08/17 00:50:33;;;;;;;3.75;3.55;;;23.40;99.90;;;;;;6339944;22;19995;-79
2022/08/17 00:52:59;;;;;;;5.65;4.50;;;23.30;99.90;;;;;;6339575;22;20071;-79
2022/08/17 00:55:25;;;;;;;4.20;3.50;;;23.30;99.90;;;;;;6339955;22;19987;-79
2022/08/17 00:57:55;;;;;;;3.97;3.38;;;23.40;99.90;;;;;;6311987;22;20013;-79
2022/08/17 01:00:28;;;;;;;3.72;3.10;;;23.40;99.90;;;;;;6339575;22;20002;-80
2022/08/17 01:03:01;;;;;;;5.18;3.80;;;23.40;99.90;;;;;;6339588;22;20445;-79
2022/08/17 01:05:29;;;;;;;4.03;3.72;;;23.40;99.90;;;;;;6312076;22;20019;-79
2022/08/17 01:07:56;;;;;;;3.85;3.63;;;23.40;99.90;;;;;;6339695;22;20056;-79
2022/08/17 01:10:54;;;;;;;4.32;3.92;;;23.40;99.90;;;;;;6339593;22;20002;-80
2022/08/17 01:13:22;;;;;;;4.53;3.92;;;23.40;99.90;;;;;;6307427;22;20022;-79
2022/08/17 01:15:56;;;;;;;3.53;3.33;;;23.40;99.90;;;;;;6339588;22;19998;-79
2022/08/17 01:18:22;;;;;;;4.38;3.97;;;23.40;99.90;;;;;;6339629;22;19998;-79
2022/08/17 01:20:51;;;;;;;3.92;3.55;;;23.40;99.90;;;;;;6339527;22;20003;-79
2022/08/17 01:23:19;;;;;;;4.03;3.42;;;23.40;99.90;;;;;;6338854;22;20086;-80
2022/08/17 01:25:51;;;;;;;3.78;3.58;;;23.40;99.90;;;;;;6338761;22;20003;-80
2022/08/17 01:28:17;;;;;;;4.13;3.83;;;23.40;99.90;;;;;;6311035;22;20029;-80
2022/08/17 01:30:43;;;;;;;4.50;3.72;;;23.30;99.90;;;;;;6338311;22;20002;-79
2022/08/17 01:33:10;;;;;;;4.25;3.75;;;23.30;99.90;;;;;;6338524;22;20431;-79
2022/08/17 01:35:37;;;;;;;6.85;3.33;;;23.20;99.90;;;;;;6338271;22;20356;-80
2022/08/17 01:38:04;;;;;;;4.32;4.03;;;23.20;99.90;;;;;;6310368;22;20081;-80
2022/08/17 01:40:41;;;;;;;4.35;3.95;;;23.20;99.90;;;;;;6338378;22;20003;-80
2022/08/17 01:43:14;;;;;;;4.13;3.75;;;23.20;99.90;;;;;;6338269;22;20003;-80
2022/08/17 01:45:47;;;;;;;4.05;3.75;;;23.30;99.90;;;;;;6310977;22;20420;-80
2022/08/17 01:48:13;;;;;;;3.92;3.50;;;23.20;99.90;;;;;;6339191;22;19999;-80
2022/08/17 01:50:42;;;;;;;5.38;3.67;;;23.20;99.90;;;;;;6311664;22;20308;-80
2022/08/17 01:53:13;;;;;;;4.95;3.78;;;23.20;99.90;;;;;;6312026;22;20006;-80
2022/08/17 01:56:02;;;;;;;4.23;4.00;;;23.20;99.90;;;;;;6339654;22;20022;-80
2022/08/17 01:58:28;;;;;;;4.25;3.95;;;23.10;99.90;;;;;;6339162;22;20745;-80
2022/08/17 02:00:54;;;;;;;4.70;3.63;;;23.20;99.90;;;;;;6339596;22;19998;-80
2022/08/17 02:03:22;;;;;;;3.95;3.65;;;23.20;99.90;;;;;;6339089;22;20074;-80
2022/08/17 02:05:49;;;;;;;4.00;3.60;;;23.20;99.90;;;;;;6338968;22;20015;-80
2022/08/17 02:08:16;;;;;;;5.63;3.50;;;23.10;99.90;;;;;;6339068;22;20002;-80
2022/08/17 02:10:42;;;;;;;3.90;3.60;;;23.20;99.90;;;;;;6338820;22;19995;-80
2022/08/17 02:13:09;;;;;;;4.57;3.75;;;23.20;99.90;;;;;;6338314;22;20426;-80
2022/08/17 02:15:34;;;;;;;4.10;3.70;;;23.20;99.90;;;;;;6338898;22;19999;-80
2022/08/17 02:18:02;;;;;;;3.70;3.40;;;23.10;99.90;;;;;;6311393;22;20384;-80
2022/08/17 02:20:30;;;;;;;3.78;3.47;;;23.10;99.90;;;;;;6338971;22;20003;-80
2022/08/17 02:22:59;;;;;;;4.25;3.80;;;23.10;99.90;;;;;;6338655;22;20056;-80
2022/08/17 02:25:29;;;;;;;3.92;3.63;;;23.10;99.90;;;;;;6338675;22;20343;-80
2022/08/17 02:27:54;;;;;;;3.78;3.53;;;23.10;99.90;;;;;;6338738;22;20006;-80
2022/08/17 02:30:20;;;;;;;4.18;3.50;;;23.00;99.90;;;;;;6339018;22;20030;-80
2022/08/17 02:32:46;;;;;;;3.53;3.33;;;23.10;99.90;;;;;;6338968;22;19995;-80
2022/08/17 02:35:12;;;;;;;5.05;3.83;;;23.10;99.90;;;;;;6310551;22;19999;-80
2022/08/17 02:37:40;;;;;;;4.80;4.38;;;23.00;99.90;;;;;;6337928;22;19999;-80
2022/08/17 02:40:07;;;;;;;4.55;3.63;;;23.00;99.90;;;;;;6310489;22;20003;-80
2022/08/17 02:42:37;;;;;;;4.07;3.88;;;23.00;99.90;;;;;;6338116;22;20003;-80
2022/08/17 02:45:06;;;;;;;4.25;3.85;;;23.00;99.90;;;;;;6338272;22;20003;-80
2022/08/17 02:47:32;;;;;;;4.03;3.80;;;23.00;99.90;;;;;;6310085;22;20006;-80
2022/08/17 02:49:58;;;;;;;4.38;3.85;;;23.00;99.90;;;;;;6338157;22;20334;-80
2022/08/17 02:52:30;;;;;;;3.90;3.60;;;23.00;99.90;;;;;;6337763;22;20048;-80
2022/08/17 02:54:56;;;;;;;4.43;3.88;;;23.00;99.90;;;;;;6338396;22;20048;-80
2022/08/17 02:57:22;;;;;;;3.95;3.65;;;23.00;99.90;;;;;;6310743;22;20010;-79
2022/08/17 02:59:47;;;;;;;4.65;3.63;;;22.90;99.90;;;;;;6338631;22;20003;-80
2022/08/17 03:02:13;;;;;;;4.20;3.80;;;22.90;99.90;;;;;;6338387;22;20503;-80
2022/08/17 03:04:39;;;;;;;4.13;3.70;;;22.90;99.90;;;;;;6310996;22;20030;-80
2022/08/17 03:07:05;;;;;;;4.13;3.53;;;22.90;99.90;;;;;;6310639;22;20042;-80
2022/08/17 03:09:31;;;;;;;4.00;3.70;;;23.00;99.90;;;;;;6338571;22;19998;-80
2022/08/17 03:12:11;;;;;;;7.07;4.22;;;22.90;99.90;;;;;;6310721;22;20003;-80
2022/08/17 03:14:39;;;;;;;4.50;4.05;;;23.00;99.90;;;;;;6338483;22;19995;-80
2022/08/17 03:17:05;;;;;;;7.97;3.70;;;23.00;99.90;;;;;;6338688;22;20578;-79
2022/08/17 03:19:30;;;;;;;3.97;3.67;;;23.00;99.90;;;;;;6338636;22;20006;-80
2022/08/17 03:21:59;;;;;;;4.25;3.58;;;23.00;99.90;;;;;;6338615;22;20458;-80
2022/08/17 03:24:25;;;;;;;3.83;3.53;;;23.00;99.90;;;;;;6340018;22;20646;-80
2022/08/17 03:26:51;;;;;;;3.92;3.50;;;23.10;99.90;;;;;;6340647;22;20002;-80
2022/08/17 03:29:17;;;;;;;3.90;3.60;;;23.00;99.90;;;;;;6312945;22;20005;-80
2022/08/17 03:31:45;;;;;;;4.25;3.90;;;23.10;99.90;;;;;;6340579;22;19999;-79
2022/08/17 03:34:12;;;;;;;5.20;3.97;;;23.00;99.90;;;;;;6340423;22;20003;-80
2022/08/17 03:36:38;;;;;;;3.97;3.70;;;23.10;99.90;;;;;;6340340;22;20431;-80
2022/08/17 03:39:04;;;;;;;4.15;3.72;;;23.10;99.90;;;;;;6312615;22;20013;-80
2022/08/17 03:41:30;;;;;;;3.85;3.55;;;23.10;99.90;;;;;;6312812;22;20046;-80
2022/08/17 03:43:55;;;;;;;4.20;3.72;;;23.10;99.90;;;;;;6340257;22;20030;-80
2022/08/17 03:57:23;;;;;;;4.60;4.05;;;23.00;99.90;;;;;;6340262;22;20018;-80
2022/08/17 03:59:49;;;;;;;6.10;4.40;;;23.00;99.90;;;;;;6339753;22;20007;-80
2022/08/17 04:02:25;;;;;;;3.97;3.67;;;23.00;99.90;;;;;;6340002;22;20003;-80
2022/08/17 04:04:52;;;;;;;3.90;3.63;;;23.00;99.90;;;;;;6339846;22;20438;-80
2022/08/17 04:07:20;;;;;;;3.90;3.60;;;23.00;99.90;;;;;;6339494;22;20437;-80
2022/08/17 04:09:47;;;;;;;4.60;3.90;;;22.90;99.90;;;;;;6339936;22;20049;-79
2022/08/17 04:12:17;;;;;;;3.95;3.63;;;22.90;99.90;;;;;;6339867;22;19998;-80
2022/08/17 04:14:44;;;;;;;4.25;3.88;;;22.90;99.90;;;;;;6340073;22;20002;-80
2022/08/17 04:17:10;;;;;;;4.68;4.10;;;22.90;99.90;;;;;;6312377;22;20006;-80
2022/08/17 04:19:36;;;;;;;4.07;3.78;;;22.90;99.90;;;;;;6340159;22;19991;-80
2022/08/17 04:22:04;;;;;;;3.70;3.50;;;22.90;99.90;;;;;;6339970;22;20031;-79
2022/08/17 04:24:31;;;;;;;4.38;4.05;;;22.90;99.90;;;;;;6312329;22;20378;-79
2022/08/17 04:26:57;;;;;;;4.18;3.78;;;22.90;99.90;;;;;;6339562;22;20457;-80
2022/08/17 04:29:24;;;;;;;4.43;4.13;;;22.90;99.90;;;;;;6339845;22;19995;-79
2022/08/17 04:31:51;;;;;;;3.70;3.50;;;22.90;99.90;;;;;;6312279;22;20003;-79
2022/08/17 04:34:18;;;;;;;4.18;3.90;;;22.90;99.90;;;;;;6312227;22;20003;-80
2022/08/17 04:36:44;;;;;;;7.15;4.10;;;22.90;99.90;;;;;;6339471;22;19995;-80
2022/08/17 04:39:10;;;;;;;3.80;3.55;;;22.90;99.90;;;;;;6340062;22;19995;-80
2022/08/17 04:44:20;;;;;;;3.80;3.50;;;22.90;99.90;;;;;;6339950;22;20075;-80
2022/08/17 04:46:46;;;;;;;4.45;3.63;;;22.90;99.90;;;;;;6339753;22;20341;-80
2022/08/17 04:49:12;;;;;;;3.85;3.55;;;22.90;99.90;;;;;;6339625;22;20078;-79
2022/08/17 04:51:40;;;;;;;3.88;3.58;;;22.90;99.90;;;;;;6339543;22;20074;-79
2022/08/17 04:54:20;;;;;;;4.32;4.03;;;22.90;99.90;;;;;;6339580;22;20415;-79
2022/08/17 04:56:46;;;;;;;4.80;4.40;;;23.00;99.90;;;;;;6339754;22;20070;-80
2022/08/17 04:59:19;;;;;;;4.85;4.43;;;23.00;99.90;;;;;;6339803;22;20027;-79
2022/08/17 05:01:47;;;;;;;5.00;4.03;;;22.90;99.90;;;;;;6312041;22;20334;-79
2022/08/17 05:04:20;;;;;;;4.45;4.10;;;22.90;99.90;;;;;;6339651;22;19999;-79
2022/08/17 05:06:48;;;;;;;4.55;4.15;;;22.90;99.90;;;;;;6339071;22;20030;-79
2022/08/17 05:09:16;;;;;;;5.53;4.03;;;23.00;99.90;;;;;;6339463;22;20006;-79
2022/08/17 05:11:42;;;;;;;4.75;4.30;;;23.00;99.90;;;;;;6312376;22;20003;-80
2022/08/17 05:14:08;;;;;;;8.07;4.13;;;23.10;99.90;;;;;;6339439;22;20020;-80
2022/08/17 05:16:34;;;;;;;4.15;3.70;;;23.10;99.90;;;;;;6339331;22;19995;-80
2022/08/17 05:19:01;;;;;;;4.15;3.75;;;23.10;99.90;;;;;;6339463;22;20331;-80
2022/08/17 05:21:28;;;;;;;5.28;3.97;;;23.20;99.90;;;;;;6311824;22;20010;-79
2022/08/17 05:23:57;;;;;;;4.72;3.92;;;23.20;99.90;;;;;;6339363;22;20009;-79
2022/08/17 05:26:24;;;;;;;3.88;3.63;;;23.20;99.90;;;;;;6339452;22;20052;-79
2022/08/17 05:28:50;;;;;;;5.82;4.10;;;23.20;99.90;;;;;;6311471;22;20014;-80
2022/08/17 05:31:18;;;;;;;4.03;3.72;;;23.20;99.90;;;;;;6339024;22;19998;-79
2022/08/17 05:33:44;;;;;;;6.70;4.05;;;23.30;99.90;;;;;;6339154;22;20023;-80
2022/08/17 05:36:13;;;;;;;3.40;3.20;;;23.30;99.90;;;;;;6339519;22;19995;-78
2022/08/17 05:38:39;;;;;;;4.07;3.47;;;23.30;99.90;;;;;;6339369;22;19999;-79
2022/08/17 05:41:07;;;;;;;4.00;3.67;;;23.40;99.90;;;;;;6339060;22;20339;-79
2022/08/17 05:43:36;;;;;;;4.57;4.18;;;23.40;99.90;;;;;;6311684;22;20014;-79
2022/08/17 05:46:26;;;;;;;4.25;3.50;;;23.40;99.90;;;;;;6339383;22;20391;-79
2022/08/17 05:49:11;;;;;;;7.00;4.22;;;23.50;99.90;;;;;;6339368;22;19999;-80
2022/08/17 05:51:52;;;;;;;5.65;5.07;;;23.50;99.90;;;;;;6339004;22;20054;-80
2022/08/17 05:54:27;;;;;;;13.52;5.10;;;23.50;99.90;;;;;;6339252;22;19994;-80
2022/08/17 05:57:15;;;;;;;9.65;5.07;;;23.60;99.90;;;;;;6339121;22;20015;-80
2022/08/17 05:59:54;;;;;;;8.65;5.32;;;23.60;99.90;;;;;;6311436;22;20006;-80
2022/08/17 06:02:33;;;;;;;6.32;4.93;;;23.70;99.90;;;;;;6339018;22;20024;-80
2022/08/17 06:05:19;;;;;;;4.55;4.25;;;23.70;99.90;;;;;;6338882;22;20566;-80
2022/08/17 06:07:48;;;;;;;4.60;4.10;;;23.70;99.90;;;;;;6339307;22;20006;-80
2022/08/17 06:10:26;;;;;;;4.05;3.85;;;23.70;99.90;;;;;;6338957;22;19995;-80
2022/08/17 06:13:18;;;;;;;4.43;3.97;;;23.70;99.90;;;;;;6338750;22;20372;-80
2022/08/17 06:15:54;;;;;;;;;;;23.80;99.90;;;;;;6338713;22;20127;-80
2022/08/17 06:18:24;;;;;;;7.07;4.22;;;23.80;99.90;;;;;;6311131;22;20367;-80
2022/08/17 06:20:57;;;;;;;4.80;4.40;;;23.80;99.90;;;;;;6338722;22;20334;-80
2022/08/17 06:23:52;;;;;;;5.32;4.38;;;23.80;99.90;;;;;;6311309;22;20010;-80
2022/08/17 06:26:22;;;;;;;6.28;4.75;;;23.90;99.90;;;;;;6338873;22;20002;-80
2022/08/17 06:28:53;;;;;;;7.97;5.00;;;23.90;99.90;;;;;;6310941;22;20006;-80
2022/08/17 06:31:26;;;;;;;5.53;4.97;;;23.90;99.90;;;;;;6338849;22;19995;-80
2022/08/17 06:33:53;;;;;;;5.22;4.78;;;23.90;99.90;;;;;;6311163;22;19999;-80
2022/08/17 06:36:21;;;;;;;5.38;4.47;;;23.90;99.90;;;;;;6310906;22;20070;-80
2022/08/17 06:38:52;;;;;;;4.80;4.47;;;24.00;99.90;;;;;;6338605;22;20026;-80
2022/08/17 06:41:44;;;;;;;5.35;4.85;;;24.00;99.90;;;;;;6311064;22;20037;-80
2022/08/17 06:44:42;;;;;;;5.22;4.18;;;24.00;99.90;;;;;;6331448;22;20442;-80
2022/08/17 06:47:19;;;;;;;5.07;4.60;;;24.10;99.90;;;;;;6338388;22;20034;-80
2022/08/17 06:49:58;;;;;;;5.10;4.70;;;24.20;99.90;;;;;;6338438;22;19995;-80
2022/08/17 06:52:28;;;;;;;4.90;4.60;;;24.10;99.90;;;;;;6310560;22;20411;-80
2022/08/17 06:55:09;;;;;;;5.47;4.75;;;24.10;99.90;;;;;;6338446;22;20022;-80
2022/08/17 06:57:49;;;;;;;5.40;5.00;;;24.20;99.90;;;;;;6338482;22;19999;-80
2022/08/17 07:00:22;;;;;;;5.60;4.78;;;24.20;99.90;;;;;;6340722;22;20010;-80
2022/08/17 07:03:05;;;;;;;5.18;4.78;;;24.30;99.90;;;;;;6340469;22;20003;-80
2022/08/17 07:05:44;;;;;;;8.20;5.15;;;24.30;99.90;;;;;;6312351;22;20023;-80
2022/08/17 07:08:18;;;;;;;5.32;4.57;;;24.40;99.90;;;;;;6339969;22;20453;-79
2022/08/17 07:10:55;;;;;;;4.85;4.50;;;24.40;99.90;;;;;;6339863;22;20078;-80
2022/08/17 07:13:56;;;;;;;5.75;5.20;;;24.40;99.90;;;;;;6339775;22;20002;-78
2022/08/17 07:16:35;;;;;;;4.78;4.43;;;24.40;99.90;;;;;;6256790;22;20009;-78
2022/08/17 07:19:03;;;;;;;5.25;4.85;;;24.40;99.90;;;;;;6339700;22;19999;-78
2022/08/17 07:21:44;;;;;;;6.15;4.57;;;24.50;99.90;;;;;;6339678;22;20002;-78
2022/08/17 07:24:13;;;;;;;5.38;4.60;;;24.60;99.90;;;;;;6340406;22;20026;-78
2022/08/17 07:26:38;;;;;;;5.82;3.95;;;24.60;99.90;;;;;;6312627;22;19998;-78
2022/08/17 07:29:05;;;;;;;5.00;4.22;;;24.60;99.90;;;;;;6312515;22;20003;-78
2022/08/17 07:31:32;;;;;;;5.32;4.78;;;24.70;99.90;;;;;;6340556;22;20007;-78
2022/08/17 07:34:04;;;;;;;5.15;4.70;;;24.70;99.90;;;;;;6312914;22;19999;-78
2022/08/17 07:36:32;;;;;;;5.05;4.65;;;24.80;99.90;;;;;;6312639;22;20427;-78
2022/08/17 07:39:00;;;;;;;7.03;4.90;;;24.80;99.90;;;;;;6312713;22;20010;-78
2022/08/17 07:41:32;;;;;;;5.07;4.72;;;24.80;99.90;;;;;;6339971;22;20056;-78
2022/08/17 07:43:58;;;;;;;4.75;4.40;;;24.90;99.90;;;;;;6312558;22;20431;-78
2022/08/17 07:49:41;;;;;;;5.15;4.65;;;25.00;99.90;;;;;;6338764;22;20556;-77
2022/08/17 07:52:10;;;;;;;4.47;4.07;;;25.00;99.90;;;;;;6335079;22;20170;-77
2022/08/17 07:54:41;;;;;;;4.90;4.60;;;25.10;99.90;;;;;;6336039;22;19995;-77
2022/08/17 07:57:11;;;;;;;4.82;4.47;;;25.10;99.90;;;;;;6336364;22;19998;-77
2022/08/17 07:59:59;;;;;;;5.05;4.65;;;25.20;99.90;;;;;;6309291;22;20009;-78
2022/08/17 08:02:39;;;;;;;5.40;4.57;;;25.30;99.90;;;;;;6312230;22;20002;-77
2022/08/17 08:05:24;;;;;;;4.80;4.50;;;25.30;99.90;;;;;;6308637;22;19999;-77
2022/08/17 08:07:58;;;;;;;4.38;4.00;;;25.30;99.90;;;;;;6335204;22;20030;-77
2022/08/17 08:10:35;;;;;;;6.25;4.95;;;25.50;99.90;;;;;;6335966;22;19995;-77
2022/08/17 08:13:12;;;;;;;5.30;4.90;;;25.50;99.90;;;;;;6336089;22;20434;-77
2022/08/17 08:15:47;;;;;;;5.82;5.43;;;25.50;99.90;;;;;;6308407;22;20435;-76
2022/08/17 08:18:48;;;;;;;5.60;5.18;;;25.40;99.90;;;;;;6335338;22;20056;-77
2022/08/17 08:21:27;;;;;;;5.38;4.80;;;25.40;99.90;;;;;;6302198;22;20006;-77
2022/08/17 08:24:14;;;;;;;5.85;4.95;;;25.50;99.90;;;;;;6336145;22;20002;-77
2022/08/17 08:27:05;;;;;;;5.95;5.45;;;25.50;99.90;;;;;;6308323;22;20030;-78
2022/08/17 08:29:52;;;;;;;6.27;5.47;;;25.50;99.90;;;;;;6336925;22;20389;-78
2022/08/17 08:32:23;;;;;;;6.80;6.25;;;25.50;99.90;;;;;;6308712;22;20430;-78
2022/08/17 08:35:02;;;;;;;6.45;5.65;;;25.70;99.90;;;;;;6308962;22;19995;-77
2022/08/17 08:37:43;;;;;;;5.93;5.00;;;25.70;99.90;;;;;;6336641;22;20006;-77
2022/08/17 08:40:14;;;;;;;7.82;5.90;;;25.80;99.90;;;;;;6336693;22;20081;-78
2022/08/17 08:42:52;;;;;;;8.73;5.47;;;25.90;99.90;;;;;;6336401;22;19995;-77
2022/08/17 08:45:21;;;;;;;8.35;5.78;;;25.80;99.90;;;;;;6308811;22;20010;-77
2022/08/17 08:47:52;;;;;;;8.50;7.68;;;25.80;99.90;;;;;;6336115;22;20073;-77
2022/08/17 08:50:29;;;;;;;7.20;5.97;;;25.90;99.90;;;;;;6335660;22;19999;-76
2022/08/17 08:53:28;;;;;;;6.43;5.82;;;26.00;99.90;;;;;;6335309;22;20006;-76
2022/08/17 08:56:14;;;;;;;12.30;6.35;;;26.10;99.90;;;;;;6308553;22;19998;-77
2022/08/17 08:59:22;;;;;;;7.60;6.55;;;26.20;99.90;;;;;;6336340;22;19999;-78
2022/08/17 09:02:21;;;;;;;11.13;6.88;;;26.20;99.90;;;;;;6294251;22;20447;-78
2022/08/17 09:05:10;;;;;;;8.77;7.22;;;26.20;99.90;;;;;;6336313;22;20006;-77
2022/08/17 09:07:51;;;;;;;7.57;6.85;;;26.20;99.90;;;;;;6336286;22;20098;-77
2022/08/17 09:10:20;;;;;;;7.93;6.50;;;26.20;99.90;;;;;;6335938;22;20005;-76
2022/08/17 09:13:14;;;;;;;8.50;6.30;;;26.30;99.90;;;;;;6335918;22;19995;-76
2022/08/17 09:15:45;;;;;;;7.60;5.10;;;26.30;99.90;;;;;;6293780;22;20053;-77
2022/08/17 09:18:32;;;;;;;7.88;6.75;;;26.40;99.90;;;;;;6336283;22;20041;-77
2022/08/17 09:21:23;;;;;;;6.38;5.82;;;26.40;99.90;;;;;;6335614;22;20029;-77
2022/08/17 09:24:03;;;;;;;5.18;4.78;;;26.50;99.90;;;;;;6307679;22;20522;-77
2022/08/17 09:27:05;;;;;;;6.43;5.72;;;26.60;99.90;;;;;;6336022;22;20002;-76
2022/08/17 09:29:35;;;;;;;6.60;5.75;;;26.70;99.90;;;;;;6324757;22;20010;-76
2022/08/17 09:32:23;;;;;;;6.03;5.50;;;26.70;99.90;;;;;;6334948;22;19999;-76
2022/08/17 09:34:53;;;;;;;5.32;4.90;;;26.80;99.90;;;;;;6307199;22;20009;-77
2022/08/17 09:37:25;;;;;;;5.88;5.05;;;26.90;99.90;;;;;;6305951;22;20010;-77
2022/08/17 09:40:07;;;;;;;5.82;5.18;;;27.00;99.90;;;;;;6334412;22;19998;-77
2022/08/17 09:42:38;;;;;;;;;;;27.00;99.90;;;;;;6335519;22;20029;-77
2022/08/17 09:45:19;;;;;;;5.00;4.70;;;27.20;99.90;;;;;;6335673;22;19909;-77
2022/08/17 09:47:55;;;;;;;5.50;4.97;;;27.30;99.90;;;;;;6335320;22;19998;-77
2022/08/17 09:50:26;;;;;;;5.75;5.13;;;27.30;99.90;;;;;;6308086;22;20026;-77
2022/08/17 09:52:58;;;;;;;5.90;5.50;;;27.40;99.90;;;;;;6334925;22;19999;-77
2022/08/17 09:55:45;;;;;;;8.52;6.55;;;27.40;99.90;;;;;;6306961;22;20351;-77
2022/08/17 09:58:31;;;;;;;5.68;5.18;;;27.40;99.90;;;;;;6307207;22;20011;-76
2022/08/17 10:01:15;;;;;;;5.57;5.18;;;27.50;99.90;;;;;;6334294;22;20006;-76
2022/08/17 10:04:13;;;;;;;7.47;5.38;;;27.60;99.90;;;;;;6333934;22;20007;-76
2022/08/17 10:07:27;;;;;;;6.57;5.97;;;27.70;99.90;;;;;;6306618;22;20079;-77
2022/08/17 10:10:01;;;;;;;5.45;4.53;;;27.70;99.90;;;;;;6319008;22;20038;-77
2022/08/17 10:12:54;;;;;;;8.13;5.45;;;27.80;99.90;;;;;;6333821;22;20071;-76
2022/08/17 10:15:41;;;;;;;7.95;5.57;;;27.80;99.90;;;;;;6333020;22;20353;-77
2022/08/17 10:18:24;;;;;;;5.10;4.60;;;27.80;99.90;;;;;;6304188;22;19998;-76
2022/08/17 10:26:11;;;;;;;5.72;5.05;;;27.80;99.90;;;;;;6305635;22;20017;-77
2022/08/17 10:26:39;;;;;;;5.57;4.88;;;27.90;99.90;;;;;;6333884;22;20010;-80
2022/08/17 10:29:26;;;;;;;4.93;4.53;;;28.00;99.90;;;;;;6305503;22;20003;-83
2022/08/17 10:31:59;;;;;;;4.68;4.22;;;28.00;99.90;;;;;;6333648;22;20002;-81
2022/08/17 10:34:53;;;;;;;6.57;4.10;;;28.20;99.90;;;;;;6332843;22;20052;-80
2022/08/17 10:37:35;;;;;;;6.38;4.10;;;28.20;99.90;;;;;;6333446;22;19998;-80
2022/08/17 10:40:23;;;;;;;4.53;4.13;;;28.30;99.90;;;;;;6332891;22;20007;-81
2022/08/17 10:43:14;;;;;;;4.43;4.13;;;28.40;99.90;;;;;;6333870;22;19998;-81
2022/08/17 10:46:06;;;;;;;4.15;3.85;;;28.40;99.90;;;;;;6306880;22;20003;-81
2022/08/17 10:48:36;;;;;;;;;;;28.30;99.90;;;;;;6305392;22;20135;-81
2022/08/17 10:51:07;;;;;;;4.47;3.67;;;28.40;99.90;;;;;;6306903;22;19902;-81
2022/08/17 10:53:42;;;;;;;3.83;3.63;;;28.40;99.90;;;;;;6335371;22;19994;-81
2022/08/17 10:56:11;;;;;;;4.30;3.78;;;28.50;99.90;;;;;;6335223;22;20003;-81
2022/08/17 10:58:52;;;;;;;4.63;4.15;;;28.60;99.90;;;;;;6335206;22;20025;-84
2022/08/17 11:01:26;;;;;;;4.03;3.65;;;28.70;99.60;;;;;;6335217;22;20003;-81
2022/08/17 11:03:57;;;;;;;3.70;3.50;;;28.70;99.20;;;;;;6306811;22;20007;-81
2022/08/17 11:06:41;;;;;;;4.75;3.78;;;28.80;99.70;;;;;;6307627;22;20068;-83
2022/08/17 11:09:25;;;;;;;4.28;3.17;;;28.90;99.90;;;;;;6334226;22;20003;-81
2022/08/17 11:12:18;;;;;;;3.60;3.30;;;28.90;98.00;;;;;;6334906;22;20002;-80
2022/08/17 11:14:52;;;;;;;3.30;3.10;;;28.90;98.50;;;;;;6256822;22;20009;-80
2022/08/17 11:17:24;;;;;;;3.08;2.88;;;29.00;98.30;;;;;;6336118;22;20595;-81
2022/08/17 11:20:08;;;;;;;;;;;29.00;97.40;;;;;;6336002;22;20101;-80
2022/08/17 11:22:42;;;;;;;2.83;2.63;;;29.00;97.70;;;;;;6307984;22;19902;-80
2022/08/17 11:25:21;;;;;;;3.42;3.10;;;29.00;98.20;;;;;;6308228;22;20011;-80
2022/08/17 11:28:03;;;;;;;2.65;2.45;;;29.10;98.10;;;;;;6335649;22;20637;-80
2022/08/17 11:30:39;;;;;;;;;;;29.20;96.90;;;;;;6336323;22;19999;-80
2022/08/17 11:33:33;;;;;;;2.85;2.65;;;29.20;97.10;;;;;;6335429;22;19968;-80
2022/08/17 11:36:10;;;;;;;2.92;2.63;;;29.30;96.20;;;;;;6335166;22;19995;-80
2022/08/17 11:39:05;;;;;;;3.13;2.88;;;29.30;96.00;;;;;;6335052;22;19998;-80
2022/08/17 11:41:49;;;;;;;3.47;3.17;;;29.20;96.90;;;;;;6335498;22;20003;-80
2022/08/17 11:44:36;;;;;;;3.97;2.50;;;29.30;95.80;;;;;;6308050;22;20372;-80
2022/08/17 11:52:58;;;;;;;2.78;2.58;;;29.30;95.60;;;;;;6337127;22;20084;-80
2022/08/17 11:55:31;;;;;;;2.92;2.72;;;29.30;95.60;;;;;;6337065;22;20003;-80
2022/08/17 11:58:00;;;;;;;2.65;2.45;;;29.30;96.30;;;;;;6337573;22;20312;-80
2022/08/17 12:00:44;;;;;;;2.88;2.65;;;29.30;95.40;;;;;;6337195;22;20003;-81
2022/08/17 12:03:31;;;;;;;2.33;2.20;;;29.40;94.40;;;;;;6337241;22;20052;-81
2022/08/17 12:06:09;;;;;;;3.25;2.65;;;29.30;95.40;;;;;;6309286;22;20045;-80
2022/08/17 12:08:42;;;;;;;3.00;2.88;;;29.40;96.20;;;;;;6309074;22;20006;-81
2022/08/17 12:11:23;;;;;;;3.75;2.38;;;29.40;96.90;;;;;;6337184;22;19999;-81
2022/08/17 12:13:51;;;;;;;;;;;29.50;95.90;;;;;;6310276;22;20441;-81
2022/08/17 12:16:19;;;;;;;2.50;2.30;;;29.60;97.30;;;;;;6337125;22;20496;-81
2022/08/17 12:19:04;;;;;;;4.40;2.58;;;29.60;94.80;;;;;;6309237;22;20031;-81
2022/08/17 12:21:45;;;;;;;3.28;2.50;;;29.70;95.10;;;;;;6309049;22;20430;-81
2022/08/17 12:24:18;;;;;;;2.97;2.65;;;29.80;94.70;;;;;;6309678;22;19999;-82
2022/08/17 12:26:54;;;;;;;3.88;2.80;;;30.00;94.50;;;;;;6336735;22;20498;-81
2022/08/17 12:29:20;;;;;;;3.22;2.70;;;29.90;96.30;;;;;;6336347;22;20342;-81
2022/08/17 12:31:49;;;;;;;2.50;2.30;;;30.00;95.80;;;;;;6336600;22;19999;-81
2022/08/17 12:34:21;;;;;;;3.13;2.92;;;30.00;96.30;;;;;;6337239;22;19999;-81
2022/08/17 12:36:49;;;;;;;2.63;2.42;;;29.90;94.30;;;;;;6336823;22;19995;-81
2022/08/17 12:39:21;;;;;;;3.17;2.85;;;29.90;94.70;;;;;;6336340;22;19999;-80
2022/08/17 12:41:49;;;;;;;3.15;2.50;;;29.80;93.80;;;;;;6336660;22;19999;-80
2022/08/17 12:44:31;;;;;;;4.40;2.30;;;29.80;93.90;;;;;;6337117;22;20038;-80
2022/08/17 12:47:16;;;;;;;3.20;2.65;;;29.80;93.70;;;;;;6337024;22;20003;-80
2022/08/17 12:49:45;;;;;;;3.90;2.60;;;29.70;94.60;;;;;;6308733;22;20056;-80
2022/08/17 12:52:13;;;;;;;2.70;2.22;;;29.70;94.60;;;;;;6336549;22;20006;-80
2022/08/17 12:54:56;;;;;;;2.70;2.50;;;29.70;95.20;;;;;;6308675;22;20006;-80
2022/08/17 12:57:37;;;;;;;3.58;2.72;;;29.80;94.80;;;;;;6336601;22;20132;-80
2022/08/17 13:00:23;;;;;;;5.68;3.25;;;29.80;94.60;;;;;;6336900;22;20054;-80
2022/08/17 13:03:23;;;;;;;3.10;2.90;;;29.90;94.60;;;;;;6336508;22;19995;-80
2022/08/17 13:05:51;;;;;;;4.13;2.50;;;29.80;94.90;;;;;;6336712;22;20006;-80
2022/08/17 13:08:36;;;;;;;2.88;2.40;;;30.00;94.60;;;;;;6308696;22;20003;-81
2022/08/17 13:11:08;;;;;;;5.53;2.75;;;29.90;94.60;;;;;;6308599;22;20084;-80
2022/08/17 13:13:38;;;;;;;2.95;2.75;;;30.00;93.70;;;;;;6336340;22;20006;-81
2022/08/17 13:16:13;;;;;;;3.92;3.38;;;30.00;93.20;;;;;;6336161;22;20376;-80
2022/08/17 13:18:41;;;;;;;2.50;2.30;;;29.90;93.20;;;;;;6336681;22;20330;-80
2022/08/17 13:21:22;;;;;;;2.97;2.78;;;30.00;94.10;;;;;;6336315;22;20676;-81
2022/08/17 13:24:09;;;;;;;2.90;2.57;;;30.00;94.10;;;;;;6308881;22;20048;-80
2022/08/17 13:26:47;;;;;;;3.17;2.88;;;30.20;94.70;;;;;;6336294;22;20213;-80
2022/08/17 13:29:22;;;;;;;2.80;2.60;;;30.30;94.40;;;;;;6308477;22;20048;-80
2022/08/17 13:31:50;;;;;;;7.00;2.65;;;30.50;93.10;;;;;;6336280;22;20390;-80
2022/08/17 13:34:15;;;;;;;2.90;2.67;;;30.80;93.40;;;;;;6336645;22;20026;-81
2022/08/17 13:36:42;;;;;;;3.08;2.75;;;30.90;93.90;;;;;;6308405;22;20080;-80
2022/08/17 13:39:18;;;;;;;5.55;2.53;;;31.10;93.20;;;;;;6336796;22;20010;-80
2022/08/17 13:41:45;;;;;;;3.65;2.88;;;31.20;93.40;;;;;;6336493;22;20523;-81
2022/08/17 13:44:40;;;;;;;2.90;2.63;;;31.40;94.00;;;;;;6336149;22;20415;-80
2022/08/17 13:47:17;;;;;;;4.47;3.42;;;31.50;94.40;;;;;;6336614;22;20453;-80
2022/08/17 13:49:44;;;;;;;3.80;3.20;;;31.40;93.60;;;;;;6336471;22;19995;-81